Palermo current weather conditions

sailwx.info

Wind from 030 at 13 knots

Air temperature 28.0° C
Visibility: greater than 5.4 NM
Dewpoint 23.0° C

Last reported at 2015-Aug-28 11:20 UTC.
Time now 2015-Aug-28 12:51 UTC

Location: N 38°10' E 013°05'.
View on Google Maps.

See reports from other nearby stations

  
Tides and Currents Weather Stations Pressure Air Temp Water Temp Dewpoint Dewpoint Depression Visibility Wind Speed Wind Dir Waves Ship Positions
date/time (UTC)wind fromknots sea level pressurealtimeterstation pressurevisibilityair tempwater tempwave heightnotes
2015-Aug-28 11:20 030 13 5.428.0
2015-Aug-28 10:50 030 12 5.428.0
2015-Aug-28 10:20 030 12 5.428.0
2015-Aug-28 09:50 030 13 28.0
2015-Aug-28 09:20 040 13 28.0
2015-Aug-28 08:50 030 12 28.0
2015-Aug-28 08:20 320 3 27.0
2015-Aug-28 07:50 260 3 27.0
2015-Aug-28 07:20 260 4 26.0
2015-Aug-28 06:50 250 2 27.0
2015-Aug-28 06:20 170 2 26.0
2015-Aug-28 05:50 160 4 25.0
2015-Aug-28 05:20 190 4 24.0
2015-Aug-28 04:50 140 4 24.0
2015-Aug-28 04:20 070 5 25.0
2015-Aug-28 03:20 110 2 24.0
2015-Aug-28 02:50 160 2 24.0
2015-Aug-28 02:20 220 1 25.0
2015-Aug-28 01:50 180 2 25.0
2015-Aug-28 01:20 250 3 26.0
2015-Aug-28 00:50 190 4 26.0
2015-Aug-28 00:20 170 5 26.0
2015-Aug-27 23:50 210 8 26.0
2015-Aug-27 23:20 220 6 26.0
2015-Aug-27 22:50 180 3 26.0
2015-Aug-27 22:20 210 7 27.0
2015-Aug-27 21:50 230 8 27.0
2015-Aug-27 21:20 220 11 27.0
2015-Aug-27 20:50 200 10 27.0
2015-Aug-27 20:20 210 10 27.0
2015-Aug-27 19:50 220 5 27.0
2015-Aug-27 19:20 290 3 28.0
2015-Aug-27 18:50 100 3 28.0
2015-Aug-27 18:20 070 8 27.0
2015-Aug-27 17:50 060 13 27.0
2015-Aug-27 17:20 050 14 28.0
2015-Aug-27 16:50 060 14 28.0
2015-Aug-27 16:20 050 15 28.0
2015-Aug-27 15:50 050 18 28.0
2015-Aug-27 15:20 050 18 28.0
2015-Aug-27 14:50 050 18 28.0
2015-Aug-27 14:20 050 18 29.0
2015-Aug-27 13:50 050 18 29.0
2015-Aug-27 13:20 060 17 29.0
2015-Aug-27 12:50 060 18 5.429.0
2015-Aug-27 12:20 060 19 5.429.0
2015-Aug-27 11:50 050 18 29.0
2015-Aug-27 11:20 060 15 5.429.0
2015-Aug-27 10:50 050 13 5.429.0
2015-Aug-27 10:20 050 12 5.429.0
2015-Aug-27 09:50 040 11 5.428.0
2015-Aug-27 09:20 030 9 5.428.0
2015-Aug-27 08:50 340 3 5.427.0
2015-Aug-27 08:20 320 3 27.0
2015-Aug-27 07:50 290 3 27.0
2015-Aug-27 07:20 250 4 26.0
2015-Aug-27 06:50 220 2 27.0
2015-Aug-27 06:20 160 3 26.0
2015-Aug-27 05:50 200 3 25.0
2015-Aug-27 05:20 180 4 23.0
2015-Aug-27 04:50 110 2 23.0
2015-Aug-27 04:20 190 3 23.0
2015-Aug-27 03:50 170 2 23.0
2015-Aug-27 03:20 180 4 23.0
2015-Aug-27 02:50 140 3 23.0
2015-Aug-27 01:20 170 3 24.0
2015-Aug-27 00:20 120 2 24.0
2015-Aug-26 23:50 160 1 24.0
2015-Aug-26 22:50 120 1 25.0
2015-Aug-26 22:20 090 5 26.0
2015-Aug-26 21:50 060 11 26.0
2015-Aug-26 21:20 060 12 26.0
2015-Aug-26 20:50 060 12 27.0
2015-Aug-26 20:20 070 12 27.0
2015-Aug-26 19:50 070 12 27.0
2015-Aug-26 19:20 070 14 27.0
2015-Aug-26 18:50 070 16 27.0
2015-Aug-26 18:20 060 16 27.0
2015-Aug-26 17:50 060 18 28.0
2015-Aug-26 17:20 060 18 28.0
2015-Aug-26 16:50 060 20 28.0
2015-Aug-26 16:20 060 22 28.0
2015-Aug-26 15:50 060 20 29.0
2015-Aug-26 15:20 050 20 5.429.0
2015-Aug-26 14:50 050 20 5.429.0
2015-Aug-26 14:20 050 18 5.429.0
2015-Aug-26 13:50 050 19 5.429.0
2015-Aug-26 13:20 050 18 5.429.0
2015-Aug-26 12:50 050 18 29.0
2015-Aug-26 12:20 050 18 29.0